Time;durP1;ratioP1;P1;durP2;ratioP2;P2;SDS_P1;SDS_P2;PMS_P1;PMS_P2;Temp;Humidity;BMP_temperature;BMP_pressure;BME280_temperature;BME280_humidity;BME280_pressure;Samples;Min_cycle;Max_cycle;Signal;HPM_P1;HPM_P2
2022/03/14 00:01:14;;;;;;;19.10;12.52;;;9.80;75.10;;;;;;6160605;23;20020;-85
2022/03/14 00:03:50;;;;;;;18.05;11.27;;;10.00;75.20;;;;;;6159661;23;20043;-84
2022/03/14 00:06:17;;;;;;;18.70;11.38;;;10.10;75.90;;;;;;6212093;23;20017;-87
2022/03/14 00:08:45;;;;;;;17.55;11.38;;;9.60;75.70;;;;;;6185193;23;20016;-84
2022/03/14 00:11:17;;;;;;;17.27;11.02;;;9.60;76.40;;;;;;6185421;23;20462;-84
2022/03/14 00:13:46;;;;;;;17.95;11.73;;;9.60;77.40;;;;;;6212137;23;20462;-86
2022/03/14 00:16:25;;;;;;;17.20;11.30;;;9.50;77.50;;;;;;6161249;23;20394;-89
2022/03/14 00:18:55;;;;;;;16.98;11.32;;;9.40;78.00;;;;;;6160777;23;20016;-85
2022/03/14 00:21:38;;;;;;;16.23;10.63;;;9.90;78.30;;;;;;6212443;23;20017;-86
2022/03/14 00:24:06;;;;;;;20.23;11.20;;;9.00;78.60;;;;;;6212197;23;20083;-90
2022/03/14 00:26:33;;;;;;;16.00;10.82;;;9.40;79.30;;;;;;6185755;23;20024;-85
2022/03/14 00:28:58;;;;;;;16.73;11.00;;;9.70;80.00;;;;;;6185807;23;20020;-84
2022/03/14 00:31:24;;;;;;;16.58;11.02;;;9.90;80.70;;;;;;6185143;23;20028;-87
2022/03/14 00:33:50;;;;;;;15.70;10.38;;;9.70;80.50;;;;;;6185206;23;20028;-87
2022/03/14 00:36:16;;;;;;;19.25;11.93;;;9.60;81.00;;;;;;6160772;23;20035;-87
2022/03/14 00:38:42;;;;;;;15.52;10.23;;;9.30;81.50;;;;;;6185436;23;20099;-86
2022/03/14 00:41:08;;;;;;;16.15;11.05;;;9.40;82.70;;;;;;6160777;23;20067;-87
2022/03/14 00:43:35;;;;;;;15.73;10.38;;;9.40;82.70;;;;;;6192887;23;20023;-87
2022/03/14 00:46:01;;;;;;;19.80;10.77;;;9.80;83.40;;;;;;6215696;23;20446;-85
2022/03/14 00:51:11;;;;;;;22.42;10.40;;;9.50;85.40;;;;;;6211333;22;20039;-87
2022/03/14 00:53:37;;;;;;;15.15;9.68;;;10.20;85.50;;;;;;6160763;23;20111;-87
2022/03/14 00:56:03;;;;;;;16.05;10.38;;;9.50;84.80;;;;;;6160514;23;20063;-86
2022/03/14 00:58:29;;;;;;;15.13;10.40;;;9.60;84.80;;;;;;6212725;23;20016;-87
2022/03/14 01:00:55;;;;;;;16.75;10.80;;;10.30;85.40;;;;;;6161065;23;20394;-88
2022/03/14 01:03:21;;;;;;;14.98;10.13;;;9.60;85.10;;;;;;6160798;23;20025;-88
2022/03/14 01:05:53;;;;;;;15.70;9.93;;;9.60;85.30;;;;;;6160404;23;20075;-86
2022/03/14 01:08:18;;;;;;;15.23;9.57;;;9.70;85.60;;;;;;6159890;23;20082;-86
2022/03/14 01:10:47;;;;;;;16.60;10.45;;;9.90;86.30;;;;;;6185071;23;20504;-87
2022/03/14 01:13:13;;;;;;;19.42;9.70;;;9.70;86.50;;;;;;6185342;23;20090;-86
2022/03/14 01:15:39;;;;;;;18.77;10.00;;;9.70;86.50;;;;;;6185542;23;20369;-86
2022/03/14 01:18:05;;;;;;;16.20;10.13;;;10.20;86.90;;;;;;6184643;23;20052;-86
2022/03/14 01:20:33;;;;;;;18.52;9.70;;;10.00;87.50;;;;;;6160066;23;20024;-87
2022/03/14 01:22:59;;;;;;;14.23;9.45;;;9.70;87.00;;;;;;6184997;23;20331;-87
2022/03/14 01:25:27;;;;;;;13.90;9.25;;;9.80;87.00;;;;;;6185134;23;20143;-88
2022/03/14 01:27:54;;;;;;;15.65;9.57;;;9.70;87.00;;;;;;6160562;23;20024;-87
2022/03/14 01:30:21;;;;;;;13.98;9.95;;;9.80;87.50;;;;;;6159857;23;20017;-85
2022/03/14 01:32:47;;;;;;;14.85;9.63;;;9.80;87.90;;;;;;6160256;23;20035;-87
2022/03/14 01:35:13;;;;;;;16.10;10.13;;;10.40;88.50;;;;;;6185438;23;20070;-87
2022/03/14 01:37:39;;;;;;;15.07;9.40;;;10.50;88.70;;;;;;6184459;23;20028;-86
2022/03/14 01:40:08;;;;;;;18.00;9.82;;;10.20;88.70;;;;;;6184605;23;20028;-87
2022/03/14 01:42:34;;;;;;;11.43;8.52;;;9.80;89.60;;;;;;6159976;23;20338;-87
2022/03/14 01:45:00;;;;;;;14.27;9.32;;;9.80;89.10;;;;;;6212059;23;20025;-87
2022/03/14 01:47:28;;;;;;;12.52;8.73;;;9.80;89.40;;;;;;6185065;23;20138;-87
2022/03/14 01:49:53;;;;;;;14.13;8.98;;;9.80;90.00;;;;;;6176846;23;20341;-86
2022/03/14 01:52:20;;;;;;;14.82;9.15;;;9.80;89.80;;;;;;6239801;23;20024;-87
2022/03/14 01:54:48;;;;;;;12.85;8.82;;;9.80;89.60;;;;;;6214923;23;20095;-88
2022/03/14 01:57:18;;;;;;;13.85;8.98;;;10.40;90.30;;;;;;6215067;23;20497;-88
2022/03/14 01:59:44;;;;;;;13.75;9.13;;;9.80;90.20;;;;;;6240639;23;20523;-87
2022/03/14 02:02:10;;;;;;;13.10;8.50;;;10.40;90.20;;;;;;6240117;23;20028;-89
2022/03/14 02:04:36;;;;;;;12.32;8.32;;;10.50;90.60;;;;;;6215313;23;20394;-87
2022/03/14 02:07:04;;;;;;;13.70;9.32;;;9.80;90.30;;;;;;6214594;23;20011;-87
2022/03/14 02:09:30;;;;;;;12.23;8.95;;;9.70;90.30;;;;;;6240010;23;20027;-87
2022/03/14 02:11:56;;;;;;;14.38;9.25;;;9.70;90.40;;;;;;6240116;23;20065;-87
2022/03/14 02:14:22;;;;;;;14.40;8.93;;;9.80;90.50;;;;;;6214952;23;20074;-87
2022/03/14 02:16:52;;;;;;;13.50;8.60;;;9.70;90.70;;;;;;6215200;23;20024;-87
2022/03/14 02:19:19;;;;;;;14.20;9.30;;;10.50;90.90;;;;;;6242530;23;20337;-84
2022/03/14 02:21:44;;;;;;;16.48;9.43;;;9.70;90.90;;;;;;6242303;23;20020;-87
2022/03/14 02:24:11;;;;;;;13.10;9.40;;;9.70;91.10;;;;;;6241288;23;20027;-88
2022/03/14 02:26:40;;;;;;;15.98;9.13;;;9.90;91.20;;;;;;6242202;23;20020;-86
2022/03/14 02:29:14;;;;;;;14.35;9.65;;;10.50;91.50;;;;;;6216616;23;20462;-87
2022/03/14 02:31:42;;;;;;;12.98;8.98;;;9.30;91.10;;;;;;6241623;23;20074;-88
2022/03/14 02:34:08;;;;;;;13.27;8.73;;;9.70;91.20;;;;;;6216972;23;20020;-86
2022/03/14 02:36:39;;;;;;;15.20;9.25;;;9.70;91.30;;;;;;6217094;23;20020;-87
2022/03/14 02:39:08;;;;;;;14.43;9.43;;;9.70;91.60;;;;;;6242001;23;20125;-87
2022/03/14 02:41:34;;;;;;;14.38;10.00;;;9.60;91.80;;;;;;6242154;23;20099;-88
2022/03/14 02:44:01;;;;;;;13.15;8.90;;;9.60;91.60;;;;;;6241967;23;20035;-87
2022/03/14 02:46:30;;;;;;;15.60;8.18;;;9.70;91.80;;;;;;6242109;23;20030;-88
2022/03/14 02:48:55;;;;;;;12.25;8.82;;;9.80;92.00;;;;;;6242612;23;20464;-88
2022/03/14 02:51:22;;;;;;;14.30;9.80;;;10.20;92.10;;;;;;6241622;23;20024;-88
2022/03/14 02:53:48;;;;;;;11.95;8.60;;;9.60;92.30;;;;;;6241808;23;20492;-87
2022/03/14 02:56:13;;;;;;;12.02;8.73;;;9.60;92.30;;;;;;6217039;23;20020;-87
2022/03/14 02:58:41;;;;;;;14.80;8.75;;;9.60;92.30;;;;;;6217518;23;20051;-88
2022/03/14 03:01:08;;;;;;;14.02;8.85;;;9.40;92.30;;;;;;6267098;22;20020;-89
2022/03/14 03:03:35;;;;;;;11.68;8.23;;;10.10;92.50;;;;;;6242738;23;20024;-90
2022/03/14 03:06:07;;;;;;;11.90;8.40;;;9.60;92.70;;;;;;6218237;23;20031;-88
2022/03/14 03:11:59;;;;;;;10.68;7.38;;;9.60;93.30;;;;;;6271218;22;20023;-87
2022/03/14 03:14:25;;;;;;;11.27;7.47;;;9.60;92.80;;;;;;6247433;22;20016;-89
2022/03/14 03:16:50;;;;;;;11.48;8.00;;;9.60;92.90;;;;;;6247151;22;20051;-86
2022/03/14 03:19:18;;;;;;;11.38;7.03;;;9.60;93.10;;;;;;6246881;22;20028;-87
2022/03/14 03:21:47;;;;;;;12.55;7.78;;;10.20;93.30;;;;;;6247195;22;20030;-87
2022/03/14 03:24:39;;;;;;;11.90;7.38;;;9.60;93.60;;;;;;6247408;22;20360;-87
2022/03/14 03:27:23;;;;;;;12.50;7.38;;;9.70;94.40;;;;;;6239443;23;20027;-86
2022/03/14 03:29:50;;;;;;;9.07;6.93;;;9.50;93.80;;;;;;6214209;23;20012;-86
2022/03/14 03:32:15;;;;;;;9.65;7.28;;;9.50;93.70;;;;;;6214608;23;20463;-85
2022/03/14 03:34:41;;;;;;;13.13;7.20;;;9.90;93.80;;;;;;6188956;23;20020;-86
2022/03/14 03:37:07;;;;;;;9.48;6.35;;;9.50;94.00;;;;;;6189482;23;20538;-86
2022/03/14 03:39:36;;;;;;;10.68;6.38;;;9.60;94.20;;;;;;6190012;23;20023;-86
2022/03/14 03:42:04;;;;;;;9.85;6.07;;;9.60;94.30;;;;;;6214327;23;20024;-87
2022/03/14 03:44:33;;;;;;;11.18;6.30;;;9.40;94.40;;;;;;6188955;23;20528;-87
2022/03/14 03:46:59;;;;;;;10.27;6.35;;;9.60;94.40;;;;;;6190120;23;20455;-86
2022/03/14 03:49:24;;;;;;;9.65;5.30;;;9.60;94.60;;;;;;6215328;23;20024;-88
2022/03/14 03:51:56;;;;;;;9.35;5.65;;;9.60;94.90;;;;;;6191137;23;20016;-86
2022/03/14 03:54:31;;;;;;;7.35;5.40;;;10.00;95.00;;;;;;6189771;23;20028;-88
2022/03/14 03:56:57;;;;;;;10.55;5.63;;;9.60;95.00;;;;;;6190464;22;20058;-86
2022/03/14 03:59:23;;;;;;;8.38;5.55;;;10.00;95.40;;;;;;6247719;22;20015;-88
2022/03/14 04:01:49;;;;;;;7.45;5.15;;;9.60;95.20;;;;;;6246724;22;20344;-85
2022/03/14 04:04:15;;;;;;;7.68;5.30;;;9.30;95.40;;;;;;6272290;22;20016;-86
2022/03/14 04:06:41;;;;;;;8.63;5.25;;;9.50;96.40;;;;;;6271957;22;20388;-86
2022/03/14 04:09:07;;;;;;;10.63;5.68;;;9.50;96.40;;;;;;6272079;22;20020;-87
2022/03/14 04:11:35;;;;;;;8.68;5.47;;;9.50;96.10;;;;;;6246569;22;20678;-86
2022/03/14 04:14:01;;;;;;;8.60;6.05;;;9.60;96.10;;;;;;6247108;22;20024;-87
2022/03/14 04:16:30;;;;;;;7.75;5.15;;;9.50;96.60;;;;;;6246718;22;20035;-86
2022/03/14 04:18:56;;;;;;;8.20;5.88;;;9.50;96.60;;;;;;6246233;22;20453;-87
2022/03/14 04:21:23;;;;;;;8.60;6.20;;;9.90;96.30;;;;;;6246993;22;20015;-86
2022/03/14 04:23:51;;;;;;;9.00;5.07;;;10.20;96.60;;;;;;6248758;22;20015;-90
2022/03/14 04:26:22;;;;;;;7.75;5.20;;;10.10;96.60;;;;;;6214487;23;20023;-87
2022/03/14 04:28:48;;;;;;;6.90;4.97;;;9.50;96.70;;;;;;6213497;23;20062;-86
2022/03/14 04:31:15;;;;;;;7.05;4.72;;;9.50;96.80;;;;;;6214543;23;20034;-88
2022/03/14 04:33:40;;;;;;;6.43;4.22;;;9.90;97.10;;;;;;6214484;23;20059;-86
2022/03/14 04:36:09;;;;;;;8.73;5.30;;;9.40;97.20;;;;;;6213743;23;20023;-88
2022/03/14 04:38:35;;;;;;;8.52;4.93;;;9.40;97.70;;;;;;6189066;23;20016;-87
2022/03/14 04:41:09;;;;;;;6.82;4.47;;;9.80;97.50;;;;;;6239603;23;20035;-87
2022/03/14 04:43:50;;;;;;;7.07;4.70;;;10.20;98.30;;;;;;6188544;23;20020;-89
2022/03/14 04:46:15;;;;;;;5.53;3.83;;;9.90;98.30;;;;;;6189065;23;20423;-87
2022/03/14 04:48:44;;;;;;;8.73;4.50;;;9.80;98.10;;;;;;6189836;23;20099;-89
2022/03/14 04:51:13;;;;;;;5.75;4.25;;;9.20;98.00;;;;;;6189176;23;20055;-89
2022/03/14 04:53:41;;;;;;;7.28;4.35;;;9.20;98.00;;;;;;6214354;23;20553;-88
2022/03/14 04:56:09;;;;;;;8.32;4.50;;;9.30;98.30;;;;;;6190071;22;20016;-90
2022/03/14 04:58:35;;;;;;;8.82;3.80;;;9.30;98.60;;;;;;6245388;22;20026;-86
2022/03/14 05:01:02;;;;;;;8.07;3.97;;;9.90;98.70;;;;;;6245621;22;20020;-87
2022/03/14 05:03:31;;;;;;;5.90;3.85;;;9.30;98.60;;;;;;6272383;22;20020;-88
2022/03/14 05:06:00;;;;;;;5.60;3.67;;;9.40;98.70;;;;;;6246789;22;20095;-86
2022/03/14 05:08:25;;;;;;;5.53;3.50;;;9.80;99.30;;;;;;6246070;22;20067;-88
2022/03/14 05:10:54;;;;;;;5.70;3.63;;;9.30;99.30;;;;;;6246533;22;20024;-88
2022/03/14 05:13:23;;;;;;;4.82;3.67;;;9.30;99.00;;;;;;6246402;22;20061;-89
2022/03/14 05:15:49;;;;;;;4.03;2.75;;;9.50;99.10;;;;;;6271412;22;20324;-86
2022/03/14 05:18:17;;;;;;;5.30;2.90;;;10.10;99.50;;;;;;6246048;22;20058;-88
2022/03/14 05:20:43;;;;;;;4.18;3.10;;;9.30;99.50;;;;;;6244894;22;20433;-88
2022/03/14 05:23:09;;;;;;;4.13;2.78;;;9.30;99.40;;;;;;6245709;22;20016;-88
2022/03/14 05:25:37;;;;;;;5.22;3.15;;;9.30;99.70;;;;;;6250808;22;20099;-91
2022/03/14 05:28:31;;;;;;;4.30;2.90;;;9.30;99.80;;;;;;6215330;23;20429;-87
2022/03/14 05:34:28;;;;;;;3.25;2.20;;;9.30;99.90;;;;;;6241097;23;20028;-88
2022/03/14 05:36:53;;;;;;;4.00;2.50;;;9.40;99.90;;;;;;6241008;23;20055;-88
2022/03/14 05:39:25;;;;;;;5.05;2.50;;;9.40;99.90;;;;;;6216209;23;20031;-87
2022/03/14 05:42:01;;;;;;;3.78;2.40;;;9.40;99.90;;;;;;6215629;23;20051;-87
2022/03/14 05:44:40;;;;;;;;;;;;;;;;;;;;;
2022/03/14 05:47:25;;;;;;;3.97;2.70;;;9.40;99.90;;;;;;6242336;23;20101;-86
2022/03/14 05:49:51;;;;;;;3.95;2.67;;;9.50;99.90;;;;;;6215191;23;20397;-88
2022/03/14 05:52:21;;;;;;;4.22;2.85;;;9.90;99.90;;;;;;6215878;23;20058;-86
2022/03/14 05:54:49;;;;;;;3.60;2.47;;;9.50;99.90;;;;;;6242274;23;20365;-84
2022/03/14 06:00:12;;;;;;;5.05;2.25;;;9.50;99.90;;;;;;6214805;22;20107;-86
2022/03/14 06:05:50;;;;;;;4.95;2.92;;;9.40;99.90;;;;;;6272435;22;20330;-85
2022/03/14 06:08:17;;;;;;;4.55;3.10;;;10.00;99.90;;;;;;6274892;22;20023;-88
2022/03/14 06:10:46;;;;;;;4.25;2.70;;;9.60;99.90;;;;;;6272701;22;20019;-87
2022/03/14 06:13:13;;;;;;;4.55;3.00;;;10.00;99.90;;;;;;6247600;22;20065;-88
2022/03/14 06:15:39;;;;;;;5.18;2.92;;;9.40;99.90;;;;;;6273606;22;20015;-87
2022/03/14 06:18:05;;;;;;;4.20;2.88;;;10.20;99.90;;;;;;6273266;22;20091;-89
2022/03/14 06:20:33;;;;;;;4.40;2.90;;;9.50;99.90;;;;;;6248137;22;20051;-87
2022/03/14 06:22:59;;;;;;;5.22;3.38;;;9.50;99.90;;;;;;6273572;22;20035;-86
2022/03/14 06:25:25;;;;;;;4.80;3.10;;;10.10;99.90;;;;;;6247865;22;20400;-88
2022/03/14 06:27:51;;;;;;;3.88;2.78;;;9.40;99.90;;;;;;6247119;22;20012;-87
2022/03/14 06:30:17;;;;;;;4.55;2.80;;;9.50;99.90;;;;;;6273271;22;20026;-88
2022/03/14 06:32:43;;;;;;;5.75;2.97;;;9.50;99.90;;;;;;6272182;22;20015;-86
2022/03/14 06:35:12;;;;;;;4.53;2.97;;;10.00;99.90;;;;;;6273512;22;20022;-87
2022/03/14 06:37:39;;;;;;;4.45;3.30;;;9.20;99.90;;;;;;6247166;22;20016;-87
2022/03/14 06:40:05;;;;;;;4.75;2.70;;;10.00;99.90;;;;;;6246891;22;20061;-88
2022/03/14 06:42:31;;;;;;;5.60;3.15;;;9.50;99.90;;;;;;6247304;22;20061;-90
2022/03/14 06:45:02;;;;;;;5.55;2.88;;;9.20;99.90;;;;;;6248645;22;20353;-88
2022/03/14 06:47:28;;;;;;;6.15;3.05;;;9.90;99.90;;;;;;6272446;22;20047;-89
2022/03/14 06:49:53;;;;;;;4.30;2.90;;;9.60;99.90;;;;;;6247378;22;20028;-87
2022/03/14 06:52:19;;;;;;;5.78;2.78;;;9.50;99.90;;;;;;6247540;22;20008;-87
2022/03/14 06:54:47;;;;;;;7.68;3.35;;;9.40;99.90;;;;;;6247437;22;20027;-87
2022/03/14 06:57:13;;;;;;;4.25;2.78;;;9.40;99.90;;;;;;6246903;22;20069;-86
2022/03/14 06:59:39;;;;;;;5.03;3.30;;;9.40;99.90;;;;;;6247189;22;20027;-86
2022/03/14 07:02:05;;;;;;;4.90;2.65;;;10.10;99.90;;;;;;6272873;22;20088;-89
2022/03/14 07:04:31;;;;;;;5.35;3.17;;;9.50;99.90;;;;;;6246603;22;20027;-84
2022/03/14 07:06:59;;;;;;;4.75;3.15;;;10.00;99.90;;;;;;6272813;22;20019;-89
2022/03/14 07:09:25;;;;;;;4.63;3.22;;;9.40;99.90;;;;;;6246954;22;20464;-87
2022/03/14 07:11:53;;;;;;;5.45;3.25;;;10.10;99.90;;;;;;6272306;22;20020;-88
2022/03/14 07:14:20;;;;;;;3.83;2.75;;;9.40;99.90;;;;;;6247365;22;20024;-85
2022/03/14 07:16:46;;;;;;;4.60;2.80;;;9.10;99.90;;;;;;6273917;22;20457;-86
2022/03/14 07:19:19;;;;;;;5.38;3.08;;;9.40;99.90;;;;;;6246386;22;20086;-87
2022/03/14 07:21:45;;;;;;;5.88;3.17;;;9.40;99.90;;;;;;6247142;22;20622;-90
2022/03/14 07:24:11;;;;;;;5.43;3.40;;;10.00;99.90;;;;;;6245982;22;20023;-87
2022/03/14 07:26:37;;;;;;;4.97;3.47;;;9.40;99.90;;;;;;6246463;22;20015;-89
2022/03/14 07:29:03;;;;;;;3.78;2.67;;;9.30;99.90;;;;;;6272040;22;20016;-85
2022/03/14 07:31:29;;;;;;;4.70;3.20;;;10.00;99.90;;;;;;6246390;22;20039;-86
2022/03/14 07:33:54;;;;;;;6.55;3.20;;;9.40;99.90;;;;;;6272036;22;20101;-86
2022/03/14 07:36:20;;;;;;;5.18;3.10;;;9.40;99.90;;;;;;6246711;22;20067;-86
2022/03/14 07:38:46;;;;;;;5.78;3.65;;;10.00;99.90;;;;;;6272401;22;20023;-87
2022/03/14 07:41:15;;;;;;;5.15;3.72;;;9.70;99.90;;;;;;6271965;22;20023;-88
2022/03/14 07:43:41;;;;;;;5.82;3.63;;;9.80;99.90;;;;;;6246765;22;20026;-88
2022/03/14 07:46:10;;;;;;;8.10;4.15;;;10.20;99.90;;;;;;6247640;22;20024;-86
2022/03/14 07:48:38;;;;;;;5.30;3.70;;;9.70;99.90;;;;;;6271937;22;20030;-88
2022/03/14 07:51:08;;;;;;;7.22;3.97;;;9.90;99.90;;;;;;6272056;22;20016;-89
2022/03/14 07:53:34;;;;;;;4.72;3.35;;;9.70;99.90;;;;;;6246413;22;20015;-88
2022/03/14 07:56:03;;;;;;;5.18;3.30;;;9.90;99.90;;;;;;6272030;22;20050;-88
2022/03/14 07:58:29;;;;;;;5.63;3.95;;;9.50;99.90;;;;;;6273804;22;20015;-87
2022/03/14 08:00:56;;;;;;;6.10;3.67;;;9.60;99.90;;;;;;6272679;22;20022;-88
2022/03/14 08:03:25;;;;;;;7.03;3.92;;;9.50;99.90;;;;;;6272523;22;20090;-87
2022/03/14 08:05:58;;;;;;;5.72;4.28;;;9.60;99.90;;;;;;6246171;22;20511;-87
2022/03/14 08:08:36;;;;;;;9.02;4.53;;;9.40;99.90;;;;;;6248015;22;20586;-88
2022/03/14 08:11:12;;;;;;;5.90;4.20;;;9.60;99.90;;;;;;6272039;22;20015;-89
2022/03/14 08:13:53;;;;;;;5.20;4.10;;;9.70;99.90;;;;;;6238918;22;20024;-85
2022/03/14 08:23:34;;;;;;;6.22;4.32;;;9.70;99.90;;;;;;6211568;23;20359;-87
2022/03/14 08:26:00;;;;;;;7.30;4.07;;;9.70;99.90;;;;;;6212214;23;20021;-85
2022/03/14 08:28:26;;;;;;;6.18;4.20;;;9.70;99.90;;;;;;6212261;23;20021;-85
2022/03/14 08:30:52;;;;;;;6.75;4.53;;;10.10;99.90;;;;;;6185507;23;20028;-85
2022/03/14 08:33:20;;;;;;;6.93;4.47;;;9.70;99.90;;;;;;6185255;23;20012;-87
2022/03/14 08:38:30;;;;;;;6.43;4.40;;;9.80;99.90;;;;;;6213300;22;20538;-86
2022/03/14 08:40:56;;;;;;;5.53;4.05;;;10.20;99.90;;;;;;6184671;23;20078;-84
2022/03/14 08:43:21;;;;;;;5.95;4.53;;;9.80;99.90;;;;;;6211679;23;20020;-86
2022/03/14 08:45:47;;;;;;;6.57;4.50;;;10.30;99.90;;;;;;6185811;23;20024;-85
2022/03/14 08:48:13;;;;;;;6.30;4.25;;;9.80;99.90;;;;;;6185045;23;20050;-84
2022/03/14 08:50:40;;;;;;;8.15;4.45;;;9.70;99.90;;;;;;6212151;23;20067;-86
2022/03/14 08:53:09;;;;;;;5.75;4.10;;;9.80;99.90;;;;;;6159234;23;20024;-86
2022/03/14 08:55:35;;;;;;;6.63;4.88;;;9.80;99.90;;;;;;6185370;23;20059;-86
2022/03/14 08:58:03;;;;;;;6.20;4.47;;;10.40;99.90;;;;;;6212025;23;20020;-86
2022/03/14 09:00:29;;;;;;;6.97;4.82;;;10.20;99.90;;;;;;6210171;23;20017;-86
2022/03/14 09:02:55;;;;;;;6.45;4.90;;;9.80;99.90;;;;;;6212181;23;20021;-86
2022/03/14 09:05:22;;;;;;;7.22;5.10;;;9.80;99.90;;;;;;6211989;23;20096;-86
2022/03/14 09:07:48;;;;;;;6.53;5.00;;;10.30;99.90;;;;;;6159671;23;20020;-83
2022/03/14 09:10:17;;;;;;;6.70;4.97;;;10.20;99.90;;;;;;6184854;23;20025;-84
2022/03/14 09:12:43;;;;;;;7.32;5.63;;;10.40;99.90;;;;;;6185151;23;20067;-83
2022/03/14 09:15:10;;;;;;;10.70;5.93;;;10.00;99.90;;;;;;6211774;23;20021;-81
2022/03/14 09:18:06;;;;;;;7.53;5.75;;;9.80;99.90;;;;;;6211588;23;20016;-84
2022/03/14 09:20:32;;;;;;;9.48;6.95;;;9.80;99.90;;;;;;6061492;23;20023;-83
2022/03/14 09:22:58;;;;;;;10.45;7.28;;;10.50;99.90;;;;;;6061627;23;20025;-86
2022/03/14 09:25:24;;;;;;;12.82;8.05;;;10.10;99.90;;;;;;6013144;23;20030;-84
2022/03/14 09:27:51;;;;;;;9.88;7.75;;;9.70;99.90;;;;;;6061638;23;20025;-83
2022/03/14 09:30:24;;;;;;;13.68;9.88;;;10.40;99.90;;;;;;6037730;23;20023;-89
2022/03/14 09:32:51;;;;;;;14.73;10.93;;;9.70;99.90;;;;;;6037580;23;20451;-84
2022/03/14 09:35:18;;;;;;;17.45;12.52;;;10.20;99.90;;;;;;6013799;23;20025;-85
2022/03/14 09:37:45;;;;;;;18.48;14.00;;;9.70;99.90;;;;;;6075874;23;20029;-84
2022/03/14 09:40:17;;;;;;;21.48;15.38;;;9.90;99.90;;;;;;6118836;23;20118;-85
2022/03/14 09:42:45;;;;;;;21.88;15.43;;;10.40;99.90;;;;;;6095071;23;20352;-84
2022/03/14 09:45:14;;;;;;;21.08;15.50;;;9.60;99.90;;;;;;6119309;23;20137;-87
2022/03/14 09:47:46;;;;;;;24.77;17.60;;;10.00;99.90;;;;;;6119338;23;20085;-83
2022/03/14 09:50:15;;;;;;;25.05;17.38;;;9.90;99.90;;;;;;6119585;23;20057;-81
2022/03/14 09:52:42;;;;;;;22.95;16.95;;;9.40;99.90;;;;;;6119311;23;20858;-82
2022/03/14 09:55:09;;;;;;;29.48;18.40;;;9.80;99.90;;;;;;6119077;23;20041;-82
2022/03/14 09:57:37;;;;;;;23.02;15.13;;;9.30;99.90;;;;;;6215299;23;20016;-80
2022/03/14 10:00:06;;;;;;;21.67;14.10;;;9.50;99.90;;;;;;6241850;23;20016;-84
2022/03/14 10:02:36;;;;;;;26.60;18.40;;;9.20;99.90;;;;;;6241658;23;20078;-83
2022/03/14 10:05:06;;;;;;;22.55;16.25;;;9.20;99.90;;;;;;6242315;23;20018;-82
2022/03/14 10:07:36;;;;;;;26.13;15.68;;;9.20;99.90;;;;;;6241465;23;20446;-81
2022/03/14 10:10:04;;;;;;;27.33;16.23;;;9.20;99.90;;;;;;6241655;23;20023;-82
2022/03/14 10:12:30;;;;;;;22.92;15.02;;;9.20;99.90;;;;;;6242060;23;20146;-82
2022/03/14 10:14:56;;;;;;;25.65;16.33;;;9.50;99.90;;;;;;6265474;22;20024;-86
2022/03/14 10:17:22;;;;;;;22.63;13.45;;;10.10;99.90;;;;;;6215302;23;20055;-82
2022/03/14 10:19:58;;;;;;;23.33;12.77;;;10.00;99.90;;;;;;6240322;23;20020;-82
2022/03/14 10:22:32;;;;;;;20.58;11.85;;;9.30;99.90;;;;;;6240215;23;20703;-79
2022/03/14 10:25:09;;;;;;;18.38;11.38;;;9.10;99.90;;;;;;6241952;23;20058;-82
2022/03/14 10:27:45;;;;;;;23.02;12.15;;;9.30;99.90;;;;;;6265179;22;20039;-82
2022/03/14 10:30:21;;;;;;;;;;;9.30;99.90;;;;;;6242537;22;20409;-82
2022/03/14 10:32:48;;;;;;;20.40;11.63;;;9.30;99.90;;;;;;6242046;22;19978;-82
2022/03/14 10:35:20;;;;;;;19.40;10.73;;;10.10;99.90;;;;;;6241987;23;20484;-82
2022/03/14 10:37:58;;;;;;;20.98;10.15;;;10.00;99.90;;;;;;6239428;22;20074;-79
2022/03/14 10:40:32;;;;;;;20.13;8.82;;;9.40;99.90;;;;;;6213823;23;20339;-81
2022/03/14 10:43:01;;;;;;;18.15;8.75;;;9.40;99.90;;;;;;6186320;23;20027;-83
2022/03/14 10:45:31;;;;;;;19.55;9.00;;;10.00;99.90;;;;;;6186619;23;20024;-83
2022/03/14 10:47:58;;;;;;;17.23;9.48;;;9.50;99.90;;;;;;6213170;23;20021;-81
2022/03/14 10:50:29;;;;;;;18.92;9.43;;;9.90;99.90;;;;;;6213285;23;20086;-83
2022/03/14 10:53:21;;;;;;;24.33;9.10;;;9.60;99.90;;;;;;6213330;23;20027;-82
2022/03/14 10:55:49;;;;;;;21.65;8.77;;;10.50;99.90;;;;;;6206174;23;20023;-82
2022/03/14 10:58:21;;;;;;;21.00;8.55;;;10.00;99.90;;;;;;6213236;23;20101;-81
2022/03/14 11:10:43;;;;;;;23.23;9.55;;;9.70;99.90;;;;;;6274046;22;20034;-82
2022/03/14 11:14:05;;;;;;;25.48;9.27;;;9.80;99.90;;;;;;6245526;22;20445;-82
2022/03/14 11:16:34;;;;;;;22.98;10.25;;;9.30;99.90;;;;;;6271706;22;20016;-81
2022/03/14 11:19:00;;;;;;;18.08;8.98;;;9.80;99.90;;;;;;6246703;22;20015;-82
2022/03/14 11:21:28;;;;;;;19.02;8.57;;;10.50;99.90;;;;;;6247258;22;20020;-83
2022/03/14 11:23:55;;;;;;;18.80;8.10;;;10.20;99.90;;;;;;6246641;22;20113;-83
2022/03/14 11:26:23;;;;;;;24.30;7.65;;;9.80;99.90;;;;;;6246300;22;20012;-80
2022/03/14 11:28:50;;;;;;;18.20;8.40;;;9.90;99.90;;;;;;6273518;22;20395;-82
2022/03/14 11:31:21;;;;;;;25.70;8.30;;;10.50;99.90;;;;;;6246401;22;20019;-82
2022/03/14 11:33:48;;;;;;;17.80;7.35;;;9.80;99.90;;;;;;6246705;22;20081;-86
2022/03/14 11:36:18;;;;;;;17.80;7.82;;;10.00;99.90;;;;;;6273613;22;20082;-83
2022/03/14 11:38:44;;;;;;;20.15;7.70;;;9.80;99.90;;;;;;6246247;22;20020;-86
2022/03/14 11:41:10;;;;;;;17.35;8.05;;;10.10;99.90;;;;;;6273939;22;20069;-83
2022/03/14 11:43:41;;;;;;;24.45;8.88;;;9.80;99.90;;;;;;6245686;22;20059;-81
2022/03/14 11:46:07;;;;;;;18.90;8.60;;;9.70;99.90;;;;;;6246389;22;20391;-82
2022/03/14 11:48:37;;;;;;;17.67;7.38;;;9.80;99.90;;;;;;6246103;22;20024;-85
2022/03/14 11:51:08;;;;;;;20.08;8.48;;;9.80;99.90;;;;;;6220423;22;20020;-83
2022/03/14 11:53:36;;;;;;;15.98;7.43;;;9.80;99.90;;;;;;6246335;22;20516;-83
2022/03/14 11:56:08;;;;;;;29.25;9.52;;;10.70;99.90;;;;;;6245994;22;20026;-79
2022/03/14 11:58:37;;;;;;;18.45;7.50;;;9.80;99.90;;;;;;6273202;22;20024;-83
2022/03/14 12:01:30;;;;;;;18.88;8.80;;;9.90;99.90;;;;;;6273317;22;20078;-82
2022/03/14 12:03:58;;;;;;;18.73;9.00;;;10.20;99.90;;;;;;6266363;22;20020;-84
2022/03/14 12:06:45;;;;;;;23.05;9.02;;;10.00;99.90;;;;;;6273041;22;20060;-87
2022/03/14 12:09:33;;;;;;;23.23;9.98;;;10.00;99.90;;;;;;6273827;22;20027;-85
2022/03/14 12:12:19;;;;;;;20.27;10.43;;;10.80;99.90;;;;;;6246464;22;20574;-83
2022/03/14 12:14:47;;;;;;;23.98;11.07;;;10.50;99.90;;;;;;6273059;22;20076;-82
2022/03/14 12:17:13;;;;;;;26.00;11.13;;;10.10;99.90;;;;;;6246397;22;20018;-82
2022/03/14 12:19:49;;;;;;;24.33;11.13;;;10.30;99.90;;;;;;6273288;22;20023;-82
2022/03/14 12:22:36;;;;;;;26.17;12.27;;;10.20;99.90;;;;;;6273572;22;20027;-83
2022/03/14 12:25:07;;;;;;;28.65;12.23;;;10.70;99.90;;;;;;6273540;22;20073;-83
2022/03/14 12:27:37;;;;;;;26.73;11.77;;;10.30;99.90;;;;;;6272773;22;20016;-88
2022/03/14 12:30:27;;;;;;;21.45;11.18;;;10.60;99.90;;;;;;6273172;22;20314;-85
2022/03/14 12:32:54;;;;;;;21.20;11.07;;;10.40;99.90;;;;;;6220212;22;20047;-85
2022/03/14 12:35:22;;;;;;;24.38;10.98;;;10.10;99.90;;;;;;6246073;22;20397;-83
2022/03/14 12:37:58;;;;;;;25.77;12.10;;;10.40;99.90;;;;;;6220723;22;20023;-83
2022/03/14 12:40:26;;;;;;;22.27;11.43;;;10.60;99.90;;;;;;6273192;22;20012;-85
2022/03/14 12:42:56;;;;;;;29.33;11.45;;;11.00;99.90;;;;;;6273208;22;20092;-84
2022/03/14 12:45:22;;;;;;;30.08;12.10;;;10.50;99.90;;;;;;6273297;22;20026;-87
2022/03/14 12:47:49;;;;;;;23.50;11.70;;;10.60;99.90;;;;;;6272674;22;20341;-83
2022/03/14 12:50:50;;;;;;;23.17;10.75;;;10.60;99.90;;;;;;6273299;22;20055;-83
2022/03/14 12:53:27;;;;;;;21.45;11.75;;;10.90;99.90;;;;;;6220442;22;20463;-86
2022/03/14 12:55:54;;;;;;;26.60;10.32;;;10.80;99.90;;;;;;6245961;22;20475;-86
2022/03/14 12:58:26;;;;;;;18.80;9.35;;;10.80;99.90;;;;;;6245790;22;20028;-84
2022/03/14 13:00:55;;;;;;;19.27;8.73;;;10.80;99.90;;;;;;6272516;22;20076;-83
2022/03/14 13:03:23;;;;;;;23.92;10.65;;;10.90;99.90;;;;;;6220111;22;20043;-82
2022/03/14 13:05:50;;;;;;;20.35;10.07;;;10.80;99.90;;;;;;6245517;22;20019;-85
2022/03/14 13:08:17;;;;;;;28.48;9.80;;;11.10;99.90;;;;;;6245816;22;20077;-85
2022/03/14 13:10:48;;;;;;;19.17;8.00;;;11.20;99.90;;;;;;6272351;22;20681;-81
2022/03/14 13:13:22;;;;;;;20.35;8.75;;;11.00;99.90;;;;;;6272744;22;20011;-87
2022/03/14 13:16:08;;;;;;;205.23;15.38;;;11.70;99.90;;;;;;6271113;22;20023;-85
2022/03/14 13:18:39;;;;;;;44.80;9.18;;;11.10;99.90;;;;;;6217855;22;20464;-83
2022/03/14 13:21:19;;;;;;;25.40;9.73;;;11.20;99.90;;;;;;6272069;22;20019;-85
2022/03/14 13:23:46;;;;;;;19.58;9.02;;;11.40;99.90;;;;;;6244076;22;20077;-89
2022/03/14 13:26:15;;;;;;;20.73;9.32;;;11.40;99.90;;;;;;6271767;22;20012;-86
2022/03/14 13:28:41;;;;;;;21.20;8.25;;;11.50;99.90;;;;;;6244344;22;20023;-91
2022/03/14 13:31:09;;;;;;;20.30;8.77;;;11.80;99.90;;;;;;6271454;22;20164;-84